Time;durP1;ratioP1;P1;durP2;ratioP2;P2;SDS_P1;SDS_P2;PMS_P1;PMS_P2;Temp;Humidity;BMP_temperature;BMP_pressure;BME280_temperature;BME280_humidity;BME280_pressure;Samples;Min_cycle;Max_cycle;Signal;HPM_P1;HPM_P2
2022/07/02 00:04:00;;;;;;;3.70;3.40;;;15.60;99.90;;;;;;8375747;28;20295;-67
2022/07/02 00:08:02;;;;;;;3.97;3.67;;;15.60;99.90;;;;;;8378525;28;20209;-69
2022/07/02 00:12:03;;;;;;;3.90;3.50;;;15.60;76.40;;;;;;8367225;28;20178;-69
2022/07/02 00:16:07;;;;;;;3.80;3.43;;;15.60;1.00;;;;;;8369719;28;20264;-69
2022/07/02 00:20:09;;;;;;;5.33;3.70;;;15.60;8.50;;;;;;8368227;28;20178;-66
2022/07/02 00:24:10;;;;;;;3.70;3.40;;;15.60;1.00;;;;;;8366431;28;20284;-67
2022/07/02 00:28:12;;;;;;;5.10;4.20;;;15.60;84.80;;;;;;8371325;28;20474;-66
2022/07/02 00:32:13;;;;;;;5.23;4.10;;;15.60;66.10;;;;;;8371136;28;20378;-67
2022/07/02 00:36:21;;;;;;;4.93;4.53;;;15.60;99.20;;;;;;8367965;28;20189;-68
2022/07/02 00:40:24;;;;;;;4.77;4.37;;;15.60;1.00;;;;;;8363894;28;20192;-67
2022/07/02 00:44:26;;;;;;;5.77;4.70;;;15.60;99.90;;;;;;8373067;28;20181;-67
2022/07/02 00:48:28;;;;;;;7.10;4.53;;;15.50;99.90;;;;;;8367114;28;20221;-69
2022/07/02 00:52:29;;;;;;;4.50;4.10;;;15.40;99.90;;;;;;8372505;28;20178;-67
2022/07/02 00:56:30;;;;;;;7.10;4.17;;;15.20;99.90;;;;;;8366487;28;20500;-67
2022/07/02 01:00:30;;;;;;;6.17;5.10;;;15.10;1.00;;;;;;8380412;28;20262;-67
2022/07/02 01:04:33;;;;;;;4.87;4.47;;;14.90;99.90;;;;;;8378533;28;20201;-68
2022/07/02 01:12:54;;;;;;;5.63;5.13;;;14.70;61.00;;;;;;8375835;28;20673;-70
2022/07/02 01:16:55;;;;;;;6.50;5.73;;;14.70;99.90;;;;;;8377198;28;20186;-68
2022/07/02 01:20:57;;;;;;;6.10;5.27;;;14.60;1.00;;;;;;8372003;28;20184;-69
2022/07/02 01:24:57;;;;;;;6.63;5.93;;;14.60;99.90;;;;;;8373527;28;20191;-66
2022/07/02 01:28:58;;;;;;;8.70;6.20;;;14.60;99.90;;;;;;8373320;28;20208;-66
2022/07/02 01:32:59;;;;;;;9.33;6.53;;;14.60;99.90;;;;;;8374697;28;20273;-69
2022/07/02 01:36:59;;;;;;;7.70;5.73;;;14.60;99.90;;;;;;8380409;28;20181;-66
2022/07/02 01:45:19;;;;;;;8.70;6.67;;;14.50;99.90;;;;;;8376548;28;20189;-68
2022/07/02 01:49:20;;;;;;;7.60;6.87;;;14.50;99.90;;;;;;8378747;28;20216;-68
2022/07/02 01:53:21;;;;;;;7.83;6.83;;;14.50;99.90;;;;;;8368927;28;20182;-66
2022/07/02 01:57:22;;;;;;;10.53;7.63;;;14.50;1.00;;;;;;8377706;28;20216;-68
2022/07/02 02:01:23;;;;;;;8.37;7.27;;;14.50;99.90;;;;;;8378445;28;20190;-68
2022/07/02 02:05:24;;;;;;;9.20;7.60;;;14.40;99.90;;;;;;8372635;28;20279;-69
2022/07/02 02:09:24;;;;;;;8.27;7.47;;;14.30;99.90;;;;;;8368381;28;20292;-67
2022/07/02 02:13:25;;;;;;;9.23;7.73;;;14.20;99.90;;;;;;8374594;28;20188;-69
2022/07/02 02:17:26;;;;;;;10.87;7.53;;;14.10;1.00;;;;;;8376271;28;20200;-71
2022/07/02 02:21:28;;;;;;;8.43;7.30;;;13.90;99.90;;;;;;8371029;28;20189;-72
2022/07/02 02:25:29;;;;;;;9.07;8.17;;;13.80;99.90;;;;;;8372114;28;20185;-69
2022/07/02 02:29:30;;;;;;;9.83;8.53;;;13.70;99.90;;;;;;8374251;28;20255;-69
2022/07/02 02:33:31;;;;;;;8.33;7.53;;;13.70;99.90;;;;;;8370711;28;20178;-67
2022/07/02 02:37:32;;;;;;;9.70;8.13;;;13.70;99.90;;;;;;8373058;28;20217;-66
2022/07/02 02:41:33;;;;;;;8.80;7.97;;;13.80;99.90;;;;;;8371584;28;20185;-66
2022/07/02 02:45:33;;;;;;;9.83;8.87;;;13.80;99.90;;;;;;8374486;28;20185;-66
2022/07/02 02:49:34;;;;;;;9.07;7.93;;;13.80;99.90;;;;;;8376965;28;20278;-67
2022/07/02 02:53:35;;;;;;;9.90;8.80;;;13.80;99.90;;;;;;8372738;28;20185;-66
2022/07/02 02:57:36;;;;;;;9.67;8.63;;;13.70;99.90;;;;;;8377544;28;20177;-67
2022/07/02 03:01:37;;;;;;;9.60;8.60;;;13.60;99.90;;;;;;8373264;28;20185;-68
2022/07/02 03:05:38;;;;;;;10.60;9.10;;;13.50;99.90;;;;;;8381429;28;20232;-73
2022/07/02 03:09:39;;;;;;;13.33;9.17;;;13.50;99.90;;;;;;8369158;28;20294;-69
2022/07/02 03:13:39;;;;;;;12.90;10.37;;;13.40;99.90;;;;;;8376104;28;20594;-67
2022/07/02 03:17:40;;;;;;;9.93;8.93;;;13.40;99.90;;;;;;8375709;28;20185;-66
2022/07/02 03:21:41;;;;;;;14.93;10.90;;;13.30;99.90;;;;;;8371916;28;20192;-66
2022/07/02 03:25:42;;;;;;;11.33;10.13;;;13.30;99.90;;;;;;8367898;28;20263;-66
2022/07/02 03:29:43;;;;;;;12.10;9.93;;;13.30;99.90;;;;;;8369430;28;20242;-66
2022/07/02 03:33:43;;;;;;;11.00;9.90;;;13.50;99.90;;;;;;8370984;28;20236;-66
2022/07/02 03:37:44;;;;;;;13.67;9.80;;;13.70;99.90;;;;;;8372737;28;20185;-66
2022/07/02 03:41:45;;;;;;;11.33;8.90;;;13.80;99.90;;;;;;8376448;28;20190;-66
2022/07/02 03:45:46;;;;;;;12.20;9.57;;;13.80;99.90;;;;;;8368577;28;20216;-66
2022/07/02 03:49:47;;;;;;;9.17;7.70;;;13.90;1.00;;;;;;8368905;28;20285;-66
2022/07/02 03:53:48;;;;;;;9.77;7.97;;;14.00;47.10;;;;;;8367897;28;20213;-67
2022/07/02 03:57:49;;;;;;;9.47;8.47;;;14.30;99.90;;;;;;8370494;28;20189;-67
2022/07/02 04:01:50;;;;;;;9.83;8.03;;;14.60;1.00;;;;;;8374198;28;20271;-66
2022/07/02 04:05:51;;;;;;;10.30;7.73;;;14.80;99.90;;;;;;8368464;28;20220;-68
2022/07/02 04:09:52;;;;;;;8.30;6.63;;;16.10;46.30;;;;;;8362505;28;20662;-68
2022/07/02 04:13:52;;;;;;;6.47;5.77;;;17.60;99.90;;;;;;8366825;28;20186;-66
2022/07/02 04:17:54;;;;;;;6.60;5.90;;;18.90;1.00;;;;;;8370036;28;20213;-67
2022/07/02 04:21:55;;;;;;;7.03;6.33;;;19.50;99.90;;;;;;8375127;28;20189;-68
2022/07/02 04:25:56;;;;;;;6.30;5.70;;;19.70;99.90;;;;;;8370548;28;20174;-68
2022/07/02 04:29:57;;;;;;;9.37;6.43;;;20.10;99.90;;;;;;8372744;28;20247;-70
2022/07/02 04:33:58;;;;;;;6.83;6.20;;;20.50;99.90;;;;;;8373590;28;20520;-72
2022/07/02 04:37:58;;;;;;;7.10;6.40;;;20.10;99.90;;;;;;8365880;28;20181;-67
2022/07/02 04:41:59;;;;;;;9.20;6.77;;;19.80;99.90;;;;;;8368412;28;20189;-67
2022/07/02 04:46:00;;;;;;;9.67;6.40;;;19.80;99.90;;;;;;8365455;28;20316;-69
2022/07/02 04:50:01;;;;;;;7.23;6.17;;;20.00;99.90;;;;;;8366190;28;20209;-71
2022/07/02 04:54:01;;;;;;;7.07;6.40;;;20.10;99.90;;;;;;8368892;28;20189;-67
2022/07/02 04:58:02;;;;;;;10.90;6.50;;;19.90;99.90;;;;;;8366524;28;20178;-68
2022/07/02 05:02:03;;;;;;;9.30;6.63;;;19.60;99.90;;;;;;8363720;28;20185;-69
2022/07/02 05:06:04;;;;;;;6.53;5.80;;;19.80;99.90;;;;;;8366013;28;20213;-67
2022/07/02 05:10:05;;;;;;;5.33;4.83;;;19.70;99.90;;;;;;8367540;28;20213;-66
2022/07/02 05:14:06;;;;;;;7.60;6.80;;;20.10;99.90;;;;;;8364113;28;20193;-68
2022/07/02 05:18:06;;;;;;;10.50;7.30;;;19.70;99.90;;;;;;8364244;28;20236;-66
2022/07/02 05:22:07;;;;;;;7.77;6.90;;;18.90;99.90;;;;;;8363461;28;20255;-69
2022/07/02 05:26:08;;;;;;;10.00;7.17;;;18.00;99.90;;;;;;8363706;28;20185;-67
2022/07/02 05:30:09;;;;;;;7.63;6.77;;;17.60;1.00;;;;;;8361991;28;20209;-68
2022/07/02 05:34:10;;;;;;;9.97;7.10;;;17.40;1.00;;;;;;8368472;28;20221;-67
2022/07/02 05:38:11;;;;;;;8.70;7.33;;;17.50;1.00;;;;;;8368121;28;20189;-67
2022/07/02 05:42:11;;;;;;;8.63;7.00;;;17.30;1.00;;;;;;8371794;28;20200;-66
2022/07/02 05:46:12;;;;;;;7.90;7.10;;;17.20;1.00;;;;;;8369107;28;20235;-69
2022/07/02 05:50:13;;;;;;;7.83;6.90;;;17.50;2.70;;;;;;8381259;28;20215;-67
2022/07/02 05:54:14;;;;;;;7.60;6.50;;;17.70;1.00;;;;;;8371134;28;20255;-67
2022/07/02 05:58:15;;;;;;;7.37;6.60;;;17.80;1.00;;;;;;8371542;28;20223;-68
2022/07/02 06:02:15;;;;;;;7.00;6.33;;;18.00;1.00;;;;;;8371282;28;20189;-67
2022/07/02 06:10:35;;;;;;;6.87;5.97;;;17.70;1.00;;;;;;8369007;28;20634;-70
2022/07/02 06:14:36;;;;;;;7.70;5.83;;;17.90;99.90;;;;;;8373694;28;20185;-69
2022/07/02 06:18:37;;;;;;;7.00;5.60;;;18.00;99.90;;;;;;8380978;28;20185;-68
2022/07/02 06:22:38;;;;;;;6.50;5.70;;;18.40;99.90;;;;;;8384215;28;20490;-69
2022/07/02 06:26:38;;;;;;;7.03;6.43;;;18.60;99.90;;;;;;8374549;28;20196;-68
2022/07/02 06:30:39;;;;;;;6.53;5.93;;;18.40;99.90;;;;;;8372293;28;20270;-68
2022/07/02 06:34:40;;;;;;;7.13;6.10;;;18.50;99.90;;;;;;8373929;28;20190;-69
2022/07/02 06:38:41;;;;;;;7.27;4.53;;;18.40;99.90;;;;;;8384449;28;20248;-67
2022/07/02 06:42:42;;;;;;;6.50;4.47;;;18.50;99.90;;;;;;8377870;28;20197;-67
2022/07/02 06:46:43;;;;;;;6.80;4.73;;;18.80;99.90;;;;;;8376598;28;20422;-67
2022/07/02 06:50:43;;;;;;;6.77;4.67;;;18.70;99.90;;;;;;8372021;28;20214;-68
2022/07/02 06:54:44;;;;;;;6.20;4.43;;;18.70;99.90;;;;;;8367762;28;20177;-68
2022/07/02 06:58:45;;;;;;;5.53;4.60;;;19.00;99.90;;;;;;8374359;28;20181;-70
2022/07/02 07:02:46;;;;;;;5.53;4.23;;;19.10;99.90;;;;;;8376215;28;20193;-67
2022/07/02 07:06:56;;;;;;;5.67;4.40;;;19.50;92.10;;;;;;8373196;28;20501;-69
2022/07/02 07:10:57;;;;;;;7.43;3.70;;;19.60;99.90;;;;;;8370596;28;20213;-68
2022/07/02 07:15:00;;;;;;;5.27;3.10;;;19.40;4.10;;;;;;8372630;28;20180;-68
2022/07/02 07:19:07;;;;;;;4.70;3.37;;;19.30;28.00;;;;;;8375540;28;20177;-67
2022/07/02 07:23:07;;;;;;;3.40;2.77;;;19.50;1.00;;;;;;8369088;28;20193;-68
2022/07/02 07:27:08;;;;;;;7.20;2.90;;;19.50;7.20;;;;;;8367731;28;20291;-67
2022/07/02 07:31:09;;;;;;;4.03;2.90;;;19.70;1.00;;;;;;8369546;28;20216;-66
2022/07/02 07:35:10;;;;;;;4.47;2.70;;;19.70;1.00;;;;;;8376982;28;20178;-67
2022/07/02 07:39:11;;;;;;;3.87;2.53;;;19.90;1.00;;;;;;8385759;28;20217;-67
2022/07/02 07:43:12;;;;;;;4.30;3.57;;;20.00;1.00;;;;;;8375752;28;20182;-67
2022/07/02 07:47:12;;;;;;;3.00;2.70;;;20.00;1.00;;;;;;8377671;28;20192;-68
2022/07/02 07:51:14;;;;;;;4.80;2.50;;;20.40;1.00;;;;;;8374582;28;20289;-68
2022/07/02 07:55:15;;;;;;;6.00;2.40;;;20.40;1.00;;;;;;8369200;28;20204;-67
2022/07/02 07:59:15;;;;;;;4.90;2.67;;;19.90;1.00;;;;;;8368838;28;20189;-66
2022/07/02 08:03:17;;;;;;;3.80;2.43;;;20.00;1.00;;;;;;8364018;28;20181;-67
2022/07/02 08:07:18;;;;;;;3.30;1.93;;;20.20;1.00;;;;;;8370488;28;20193;-68
2022/07/02 08:11:19;;;;;;;4.27;2.10;;;20.60;1.00;;;;;;8365814;28;20192;-70
2022/07/02 08:15:20;;;;;;;3.47;2.00;;;20.70;1.00;;;;;;8369757;28;20187;-66
2022/07/02 08:19:21;;;;;;;5.90;1.90;;;20.80;1.00;;;;;;8365601;28;20189;-67
2022/07/02 08:23:22;;;;;;;3.07;2.10;;;21.10;1.00;;;;;;8371974;28;20272;-68
2022/07/02 08:27:23;;;;;;;4.57;2.43;;;21.60;1.00;;;;;;8369602;28;20212;-69
2022/07/02 08:31:24;;;;;;;2.30;1.50;;;21.90;1.00;;;;;;8375564;28;20185;-71
2022/07/02 08:35:24;;;;;;;1.53;1.43;;;22.00;1.00;;;;;;8370475;28;20196;-69
2022/07/02 08:39:26;;;;;;;2.80;1.90;;;22.00;1.00;;;;;;8375236;28;20260;-68
2022/07/02 08:43:27;;;;;;;1.57;1.40;;;21.80;1.00;;;;;;8366253;28;20188;-70
2022/07/02 08:47:29;;;;;;;3.17;1.73;;;22.00;1.00;;;;;;8372331;28;20189;-68
2022/07/02 08:51:30;;;;;;;2.20;1.80;;;22.30;1.00;;;;;;8373756;28;20193;-67
2022/07/02 08:55:35;;;;;;;5.73;2.40;;;22.50;1.00;;;;;;8368197;28;20188;-69
2022/07/02 08:59:36;;;;;;;2.10;1.93;;;21.80;1.00;;;;;;8372894;28;20183;-67
2022/07/02 09:03:38;;;;;;;3.53;1.80;;;21.20;1.00;;;;;;8372256;28;20202;-71
2022/07/02 09:07:41;;;;;;;3.07;1.70;;;21.40;1.00;;;;;;8371115;28;20196;-72
2022/07/02 09:11:43;;;;;;;1.20;1.00;;;21.80;1.00;;;;;;8371401;28;20174;-68
2022/07/02 09:15:45;;;;;;;2.07;1.30;;;22.30;1.00;;;;;;8371117;28;20181;-65
2022/07/02 09:19:46;;;;;;;2.00;1.47;;;23.30;1.00;;;;;;8370706;28;20276;-68
2022/07/02 09:23:48;;;;;;;1.73;1.30;;;23.80;1.00;;;;;;8371981;28;20182;-68
2022/07/02 09:27:59;;;;;;;2.30;1.47;;;23.70;1.00;;;;;;8371945;28;20217;-68
2022/07/02 09:32:01;;;;;;;2.33;1.37;;;23.60;1.00;;;;;;8389496;28;20184;-69
2022/07/02 09:36:10;;;;;;;3.40;1.70;;;23.60;1.00;;;;;;8382678;28;20213;-69
2022/07/02 09:40:11;;;;;;;3.90;1.83;;;23.50;1.00;;;;;;8375725;28;20186;-70
2022/07/02 09:44:13;;;;;;;2.13;1.50;;;23.20;1.00;;;;;;8373922;28;20220;-70
2022/07/02 09:48:17;;;;;;;2.10;1.50;;;23.00;1.00;;;;;;8382029;28;20287;-67
2022/07/02 09:52:18;;;;;;;2.43;1.50;;;22.80;1.00;;;;;;8371588;28;20270;-70
2022/07/02 09:56:21;;;;;;;2.90;1.60;;;22.60;1.00;;;;;;8370031;28;20185;-71
2022/07/02 10:00:24;;;;;;;3.03;1.70;;;22.80;1.00;;;;;;8373380;28;20188;-69
2022/07/02 10:04:29;;;;;;;2.10;1.30;;;22.90;1.00;;;;;;8377192;28;20202;-71
2022/07/02 10:08:32;;;;;;;2.53;1.30;;;23.10;1.00;;;;;;8382249;28;20202;-69
2022/07/02 10:12:33;;;;;;;1.53;0.93;;;23.50;1.00;;;;;;8374399;28;20283;-66
2022/07/02 10:16:34;;;;;;;1.48;0.90;;;24.60;1.00;;;;;;8379023;28;20560;-68
2022/07/02 10:20:35;;;;;;;3.70;1.30;;;25.60;1.00;;;;;;8371534;28;20182;-69
2022/07/02 10:24:37;;;;;;;2.40;1.30;;;25.50;1.00;;;;;;8376127;28;20185;-67
2022/07/02 10:28:38;;;;;;;1.73;1.27;;;25.00;1.00;;;;;;8375524;28;20216;-70
2022/07/02 10:32:50;;;;;;;2.72;1.55;;;24.40;1.00;;;;;;8377129;28;20185;-69
2022/07/02 10:36:52;;;;;;;1.50;1.37;;;24.00;1.00;;;;;;8372790;28;20186;-67
2022/07/02 10:40:53;;;;;;;1.97;1.40;;;23.80;1.00;;;;;;8368655;28;20238;-71
2022/07/02 10:44:53;;;;;;;3.40;1.57;;;23.90;1.00;;;;;;8375408;28;20192;-66
2022/07/02 10:48:56;;;;;;;1.73;1.30;;;23.70;1.00;;;;;;8373556;28;20303;-66
2022/07/02 10:52:57;;;;;;;2.07;1.33;;;23.60;1.00;;;;;;8370781;28;20230;-70
2022/07/02 10:56:58;;;;;;;1.40;1.30;;;23.60;1.00;;;;;;8375514;28;20173;-65
2022/07/02 11:01:21;;;;;;;3.57;1.30;;;23.50;1.00;;;;;;8371666;28;20184;-66
2022/07/02 11:05:22;;;;;;;1.43;1.13;;;23.30;1.00;;;;;;8375091;28;20254;-72
2022/07/02 11:09:23;;;;;;;1.70;0.90;;;23.50;1.00;;;;;;8368495;28;20209;-65
2022/07/02 11:13:53;;;;;;;2.50;1.00;;;24.50;1.00;;;;;;8367388;28;20236;-68
2022/07/02 11:18:00;;;;;;;1.20;1.10;;;25.40;99.90;;;;;;8368889;28;20184;-66
2022/07/02 11:22:05;;;;;;;1.48;1.27;;;25.90;99.90;;;;;;8373038;28;20187;-66
2022/07/02 11:26:09;;;;;;;1.60;1.35;;;26.60;99.90;;;;;;8369112;28;20185;-69
2022/07/02 11:30:10;;;;;;;2.28;1.50;;;26.80;99.90;;;;;;8374026;28;20209;-66
2022/07/02 11:34:13;;;;;;;2.22;1.83;;;26.90;99.90;;;;;;8373406;28;20213;-69
2022/07/02 11:38:14;;;;;;;2.05;1.33;;;26.80;99.90;;;;;;8375379;28;20181;-65
2022/07/02 11:42:14;;;;;;;2.25;1.40;;;26.70;99.90;;;;;;8369529;28;20192;-68
2022/07/02 11:46:19;;;;;;;3.92;1.98;;;25.50;99.90;;;;;;8370997;28;20362;-74
2022/07/02 11:50:28;;;;;;;3.37;2.00;;;24.60;99.90;;;;;;8371316;28;20209;-73
2022/07/02 11:54:29;;;;;;;3.50;2.33;;;23.90;1.00;;;;;;8366646;28;20189;-70
2022/07/02 11:58:48;;;;;;;2.43;1.90;;;24.30;1.00;;;;;;8366099;28;20606;-71
2022/07/02 12:02:48;;;;;;;3.03;1.80;;;24.40;1.00;;;;;;8373699;28;20209;-69
2022/07/02 12:06:51;;;;;;;2.83;2.10;;;24.80;1.00;;;;;;8373681;28;20209;-66
2022/07/02 12:10:52;;;;;;;4.10;2.70;;;25.00;99.90;;;;;;8366840;28;20238;-70
2022/07/02 12:14:53;;;;;;;5.82;3.90;;;25.10;99.90;;;;;;8368840;28;20185;-68
2022/07/02 12:19:09;;;;;;;4.15;2.10;;;25.30;99.90;;;;;;8373171;28;20246;-69
2022/07/02 12:23:09;;;;;;;2.47;1.90;;;25.60;99.90;;;;;;8368640;28;20181;-65
2022/07/02 12:27:10;;;;;;;2.47;1.80;;;25.30;99.90;;;;;;8360656;28;20252;-72
2022/07/02 12:31:11;;;;;;;2.17;1.92;;;25.00;1.00;;;;;;8368384;28;20205;-68
2022/07/02 12:35:16;;;;;;;2.63;1.77;;;25.10;99.90;;;;;;8375448;28;20207;-70
2022/07/02 12:39:17;;;;;;;3.57;1.87;;;24.70;99.90;;;;;;8372766;28;20188;-67
2022/07/02 12:43:21;;;;;;;2.57;1.83;;;24.50;99.90;;;;;;8367564;28;20182;-70
2022/07/02 12:47:23;;;;;;;2.27;2.00;;;24.40;99.90;;;;;;8377401;28;20213;-65
2022/07/02 12:51:24;;;;;;;2.20;1.90;;;24.30;99.90;;;;;;8368962;28;20205;-70
2022/07/02 12:55:29;;;;;;;3.40;1.77;;;24.90;99.90;;;;;;8384023;28;20184;-67
2022/07/02 12:59:29;;;;;;;2.65;1.70;;;25.90;99.90;;;;;;8378910;28;20205;-68
2022/07/02 13:03:30;;;;;;;3.03;1.77;;;26.60;99.90;;;;;;8376199;28;20232;-70
2022/07/02 13:07:31;;;;;;;4.00;1.67;;;27.00;99.90;;;;;;8382179;28;20219;-68
2022/07/02 13:11:32;;;;;;;3.13;1.70;;;26.50;99.90;;;;;;8374672;28;20319;-66
2022/07/02 13:15:33;;;;;;;1.48;1.38;;;27.00;99.90;;;;;;8376833;28;20178;-66
2022/07/02 13:19:36;;;;;;;2.15;1.67;;;26.90;99.90;;;;;;8371633;28;20434;-69
2022/07/02 13:23:36;;;;;;;2.05;1.63;;;27.20;99.90;;;;;;8379851;28;20272;-64
2022/07/02 13:27:38;;;;;;;2.00;1.80;;;27.20;99.90;;;;;;8374064;28;20205;-67
2022/07/02 13:31:39;;;;;;;2.10;1.88;;;26.70;99.90;;;;;;8375824;28;20667;-67
2022/07/02 13:35:40;;;;;;;2.72;2.08;;;26.30;99.90;;;;;;8386790;28;20216;-69
2022/07/02 13:39:42;;;;;;;13.27;3.42;;;25.80;99.90;;;;;;8375682;28;20214;-69
2022/07/02 13:43:43;;;;;;;3.85;2.50;;;25.50;99.90;;;;;;8377195;28;20229;-67
2022/07/02 13:47:47;;;;;;;2.47;1.85;;;25.60;99.90;;;;;;8371316;28;20189;-69
2022/07/02 13:51:48;;;;;;;2.30;2.10;;;25.70;99.90;;;;;;8377056;28;20177;-70
2022/07/02 13:55:48;;;;;;;1.90;1.65;;;25.80;99.90;;;;;;8380047;28;20199;-69
2022/07/02 13:59:49;;;;;;;2.72;1.80;;;25.70;99.90;;;;;;8371791;28;20185;-69
2022/07/02 14:03:50;;;;;;;2.33;1.73;;;25.80;99.90;;;;;;8375502;28;20201;-70
2022/07/02 14:07:51;;;;;;;1.88;1.67;;;25.70;99.90;;;;;;8372484;28;20182;-70
2022/07/02 14:11:52;;;;;;;4.20;2.00;;;25.60;99.90;;;;;;8376900;28;20185;-72
2022/07/02 14:15:53;;;;;;;2.55;1.83;;;25.60;99.90;;;;;;8375569;28;20208;-73
2022/07/02 14:19:54;;;;;;;7.50;4.15;;;25.30;99.90;;;;;;8371927;28;20189;-71
2022/07/02 14:23:54;;;;;;;1.97;1.70;;;25.40;99.90;;;;;;8369645;28;20181;-69
2022/07/02 14:27:55;;;;;;;2.35;1.90;;;25.30;99.90;;;;;;8374086;28;20254;-71
2022/07/02 14:31:57;;;;;;;2.03;1.70;;;25.40;99.90;;;;;;8372923;28;20173;-69
2022/07/02 14:35:59;;;;;;;2.80;1.77;;;25.50;99.90;;;;;;8379611;28;20193;-65
2022/07/02 14:40:02;;;;;;;3.45;2.17;;;25.60;99.90;;;;;;8381210;28;20182;-69
2022/07/02 14:44:03;;;;;;;3.65;1.52;;;25.70;99.90;;;;;;8373251;28;20491;-67
2022/07/02 14:48:04;;;;;;;2.00;1.48;;;25.80;99.90;;;;;;8375146;28;20204;-65
2022/07/02 14:52:05;;;;;;;1.60;1.50;;;26.20;99.90;;;;;;8366353;28;20174;-66
2022/07/02 14:56:06;;;;;;;2.78;1.90;;;26.40;99.90;;;;;;8374171;28;20177;-69
2022/07/02 15:00:09;;;;;;;3.50;1.80;;;26.30;99.90;;;;;;8372817;28;20178;-70
2022/07/02 15:04:10;;;;;;;4.22;1.95;;;26.20;99.90;;;;;;8372888;28;20204;-71
2022/07/02 15:08:11;;;;;;;2.30;1.40;;;26.00;99.90;;;;;;8364143;28;20236;-70
2022/07/02 15:12:11;;;;;;;1.70;1.27;;;26.20;99.90;;;;;;8359892;28;20205;-74
2022/07/02 15:16:12;;;;;;;3.45;1.55;;;26.10;99.90;;;;;;8366927;28;20177;-66
2022/07/02 15:20:13;;;;;;;2.53;1.67;;;26.00;99.90;;;;;;8363065;28;20621;-68
2022/07/02 15:24:23;;;;;;;1.83;1.40;;;25.80;99.90;;;;;;8366330;28;20189;-68
2022/07/02 15:28:26;;;;;;;1.52;1.42;;;25.50;99.90;;;;;;8369093;28;20221;-66
2022/07/02 15:32:27;;;;;;;1.80;1.53;;;25.40;99.90;;;;;;8366931;28;20192;-69
2022/07/02 15:36:29;;;;;;;70.27;57.53;;;24.90;99.90;;;;;;8366806;28;20185;-70
2022/07/02 15:40:30;;;;;;;10.93;6.53;;;25.10;99.90;;;;;;8367084;28;20243;-69
2022/07/02 15:44:31;;;;;;;1.90;1.77;;;25.30;99.90;;;;;;8361923;28;20194;-68
2022/07/02 15:48:32;;;;;;;2.37;1.80;;;25.30;99.90;;;;;;8371016;28;20252;-67
2022/07/02 15:52:40;;;;;;;6.65;4.53;;;25.50;99.90;;;;;;8361682;28;20235;-68
2022/07/02 15:56:46;;;;;;;3.55;2.55;;;25.80;99.90;;;;;;8362918;28;20184;-69
2022/07/02 16:00:48;;;;;;;3.95;2.08;;;25.90;99.90;;;;;;8371441;28;20193;-71
2022/07/02 16:04:51;;;;;;;4.10;1.98;;;25.90;99.90;;;;;;8362253;28;20202;-64
2022/07/02 16:08:54;;;;;;;2.53;1.60;;;25.60;99.90;;;;;;8374675;28;20216;-64
2022/07/02 16:12:54;;;;;;;3.42;2.05;;;25.40;99.90;;;;;;8373156;28;20241;-67
2022/07/02 16:16:56;;;;;;;3.92;2.17;;;25.50;99.90;;;;;;8363407;28;20173;-67
2022/07/02 16:20:57;;;;;;;3.28;2.80;;;25.50;99.90;;;;;;8366905;28;20206;-64
2022/07/02 16:24:58;;;;;;;2.65;2.00;;;25.60;99.90;;;;;;8371042;28;20184;-71
2022/07/02 16:28:59;;;;;;;2.97;1.40;;;25.60;99.90;;;;;;8365694;28;20308;-65
2022/07/02 16:33:02;;;;;;;3.17;1.73;;;25.70;99.90;;;;;;8365115;28;20185;-64
2022/07/02 16:37:08;;;;;;;2.05;1.70;;;25.70;99.90;;;;;;8366154;28;20173;-74
2022/07/02 16:41:10;;;;;;;2.10;1.60;;;25.60;99.90;;;;;;8365465;28;20421;-63
2022/07/02 16:45:13;;;;;;;4.05;1.63;;;25.40;99.90;;;;;;8372801;28;20189;-65
2022/07/02 16:49:15;;;;;;;2.33;1.83;;;25.40;99.90;;;;;;8365458;28;20209;-63
2022/07/02 16:53:17;;;;;;;3.42;1.70;;;25.40;99.90;;;;;;8370869;28;20185;-65
2022/07/02 16:57:19;;;;;;;4.03;2.67;;;25.20;99.90;;;;;;8369808;28;20194;-67
2022/07/02 17:01:21;;;;;;;1.67;1.40;;;25.10;99.90;;;;;;8375174;28;20236;-66
2022/07/02 17:05:22;;;;;;;1.90;1.23;;;25.10;99.90;;;;;;8368908;28;20342;-65
2022/07/02 17:09:23;;;;;;;5.67;1.70;;;25.10;99.90;;;;;;8359594;28;20214;-63
2022/07/02 17:13:24;;;;;;;3.00;2.17;;;25.20;99.90;;;;;;8360357;28;20189;-64
2022/07/02 17:17:25;;;;;;;2.27;1.73;;;25.20;99.90;;;;;;8358851;28;20189;-66
2022/07/02 17:21:27;;;;;;;2.47;1.70;;;25.70;99.90;;;;;;8365075;28;20285;-66
2022/07/02 17:25:33;;;;;;;2.95;1.70;;;26.60;99.90;;;;;;8359240;28;20189;-65
2022/07/02 17:29:34;;;;;;;4.43;1.58;;;27.20;99.90;;;;;;8364634;28;20214;-64
2022/07/02 17:33:34;;;;;;;2.45;1.48;;;27.90;99.90;;;;;;8356052;28;20235;-63
2022/07/02 17:37:35;;;;;;;4.85;1.92;;;28.60;99.90;;;;;;8363897;28;20207;-65
2022/07/02 17:41:37;;;;;;;4.50;1.48;;;29.20;99.90;;;;;;8368579;28;20694;-68
2022/07/02 17:45:37;;;;;;;1.75;1.40;;;29.50;99.90;;;;;;8377026;28;20204;-64
2022/07/02 17:49:38;;;;;;;2.38;1.42;;;29.90;99.90;;;;;;8367933;28;20259;-68
2022/07/02 17:53:40;;;;;;;2.20;1.42;;;29.90;99.90;;;;;;8369763;28;20193;-66
2022/07/02 17:57:41;;;;;;;3.65;2.40;;;30.10;99.90;;;;;;8371177;28;20268;-68
2022/07/02 18:01:41;;;;;;;3.17;2.30;;;30.20;99.90;;;;;;8370306;28;20181;-70
2022/07/02 18:05:42;;;;;;;3.72;1.80;;;30.40;99.90;;;;;;8365253;28;20202;-72
2022/07/02 18:09:43;;;;;;;4.20;1.58;;;30.70;99.90;;;;;;8366370;28;20214;-64
2022/07/02 18:13:44;;;;;;;5.03;2.00;;;30.80;99.90;;;;;;8361223;28;20201;-68
2022/07/02 18:17:45;;;;;;;2.22;1.88;;;30.80;99.90;;;;;;8371111;28;20188;-70
2022/07/02 18:21:46;;;;;;;6.65;2.42;;;30.70;99.90;;;;;;8365094;28;20182;-69
2022/07/02 18:25:47;;;;;;;4.85;2.10;;;30.50;99.90;;;;;;8360895;28;20265;-68
2022/07/02 18:29:48;;;;;;;4.57;2.67;;;30.10;99.90;;;;;;8374888;28;20220;-66
2022/07/02 18:33:49;;;;;;;4.05;2.95;;;29.80;99.90;;;;;;8381048;28;20182;-67
2022/07/02 18:37:50;;;;;;;2.78;2.47;;;29.50;99.90;;;;;;8365776;28;20255;-64
2022/07/02 18:41:51;;;;;;;2.85;1.30;;;29.30;99.90;;;;;;8364415;28;20232;-65
2022/07/02 18:45:52;;;;;;;2.53;1.67;;;29.40;99.90;;;;;;8373472;28;20177;-66
2022/07/02 18:49:53;;;;;;;1.52;1.42;;;29.30;99.90;;;;;;8487862;22;20229;-88
2022/07/02 18:53:55;;;;;;;2.97;1.80;;;28.90;99.90;;;;;;8372287;28;20201;-87
2022/07/02 18:57:56;;;;;;;2.38;1.40;;;28.50;99.90;;;;;;8371758;28;20208;-88
2022/07/02 19:01:56;;;;;;;1.35;1.17;;;27.80;99.90;;;;;;8367833;28;20688;-88
2022/07/02 19:05:57;;;;;;;2.13;1.40;;;26.80;99.90;;;;;;8371225;28;20181;-87
2022/07/02 19:09:58;;;;;;;1.48;1.25;;;25.50;99.90;;;;;;8365117;28;20216;-88
2022/07/02 19:14:02;;;;;;;1.80;1.50;;;24.40;99.90;;;;;;8369736;28;20206;-88
2022/07/02 19:18:04;;;;;;;2.77;1.83;;;23.30;1.00;;;;;;8405491;22;20220;-63
2022/07/02 19:22:05;;;;;;;1.70;1.53;;;22.40;1.00;;;;;;8403831;28;20318;-65
2022/07/02 19:30:27;;;;;;;1.50;1.40;;;21.60;1.00;;;;;;8394460;28;20285;-65
2022/07/02 19:30:28;;;;;;;2.13;1.60;;;21.00;1.00;;;;;;8402242;28;20226;-63
2022/07/02 19:34:29;;;;;;;1.93;1.73;;;20.50;1.00;;;;;;8398181;28;20272;-62
2022/07/02 19:38:29;;;;;;;1.53;1.43;;;20.10;1.00;;;;;;8399055;28;20181;-63
2022/07/02 19:42:31;;;;;;;2.00;1.60;;;19.80;1.00;;;;;;8399836;28;20187;-63
2022/07/02 19:46:33;;;;;;;2.50;1.93;;;19.40;1.00;;;;;;8396522;28;20176;-64
2022/07/02 19:50:35;;;;;;;2.20;2.00;;;19.10;1.00;;;;;;8392282;28;20220;-68
2022/07/02 19:54:36;;;;;;;3.50;1.90;;;18.80;1.00;;;;;;8398490;28;20195;-64
2022/07/02 19:58:36;;;;;;;1.80;1.70;;;18.60;1.00;;;;;;8389606;28;20192;-63
2022/07/02 20:02:37;;;;;;;3.63;2.43;;;18.30;1.00;;;;;;8397290;28;20191;-64
2022/07/02 20:06:38;;;;;;;2.50;2.30;;;18.00;28.90;;;;;;8398404;28;20281;-63
2022/07/02 20:10:40;;;;;;;2.43;2.23;;;17.60;99.90;;;;;;8405002;28;20215;-64
2022/07/02 20:14:41;;;;;;;4.77;3.87;;;17.30;99.90;;;;;;8389949;28;20304;-63
2022/07/02 20:18:42;;;;;;;5.70;4.03;;;17.00;99.90;;;;;;8398288;28;20195;-63
2022/07/02 20:22:43;;;;;;;4.50;3.50;;;16.80;99.90;;;;;;8400486;28;20272;-64
2022/07/02 20:26:44;;;;;;;3.23;2.93;;;16.60;99.90;;;;;;8403477;28;20185;-64
2022/07/02 20:30:45;;;;;;;9.63;8.83;;;16.50;99.90;;;;;;8395466;28;20248;-63
2022/07/02 20:34:46;;;;;;;6.57;5.97;;;16.30;99.90;;;;;;8400452;28;20188;-63
2022/07/02 20:38:47;;;;;;;3.50;3.20;;;16.20;99.90;;;;;;8401494;28;20185;-64
2022/07/02 20:42:50;;;;;;;3.33;2.67;;;16.10;99.90;;;;;;8401048;28;20200;-63
2022/07/02 20:46:51;;;;;;;2.97;2.77;;;15.90;99.90;;;;;;8405890;28;20188;-64
2022/07/02 20:50:52;;;;;;;4.13;2.63;;;15.80;99.90;;;;;;8395577;28;20212;-64
2022/07/02 20:54:53;;;;;;;2.67;2.20;;;15.70;99.90;;;;;;8392628;28;20289;-65
2022/07/02 20:58:54;;;;;;;3.53;2.93;;;15.60;99.90;;;;;;8397220;28;20193;-64
2022/07/02 21:02:54;;;;;;;3.03;2.73;;;15.50;99.90;;;;;;8394809;28;20191;-63
2022/07/02 21:06:55;;;;;;;3.90;2.30;;;15.30;99.90;;;;;;8396989;28;20188;-63
2022/07/02 21:10:56;;;;;;;2.70;2.40;;;15.30;99.90;;;;;;8395178;28;20277;-66
2022/07/02 21:14:58;;;;;;;3.97;2.67;;;15.20;99.90;;;;;;8400932;28;20208;-62
2022/07/02 21:19:02;;;;;;;3.00;2.70;;;15.10;1.00;;;;;;8404636;28;20203;-64